Time;durP1;ratioP1;P1;durP2;ratioP2;P2;SDS_P1;SDS_P2;PMS_P1;PMS_P2;Temp;Humidity;BMP_temperature;BMP_pressure;BME280_temperature;BME280_humidity;BME280_pressure;Samples;Min_cycle;Max_cycle;Signal;HPM_P1;HPM_P2
2021/11/25 00:00:03;;;;;;;;;;;;;;;1.56;100.00;99964.51;1686282;85;20130;-63
2021/11/25 00:02:32;;;;;;;;;;;;;;;1.57;100.00;99962.67;1685120;85;20127;-62
2021/11/25 00:04:58;;;;;;;;;;;;;;;1.57;100.00;99966.64;1684739;85;20143;-62
2021/11/25 00:07:27;;;;;;;;;;;;;;;1.56;100.00;99958.41;1685818;85;20110;-62
2021/11/25 00:09:53;;;;;;;;;;;;;;;1.58;100.00;99967.80;1686444;84;20452;-63
2021/11/25 00:12:20;;;;;;;;;;;;;;;1.59;100.00;99965.45;1686506;83;20143;-61
2021/11/25 00:14:47;;;;;;;;;;;;;;;1.62;100.00;99965.61;1686033;84;20448;-62
2021/11/25 00:17:13;;;;;;;;;;;;;;;1.60;100.00;99960.50;1686529;84;20171;-62
2021/11/25 00:19:41;;;;;;;;;;;;;;;1.60;100.00;99959.17;1684494;84;20561;-65
2021/11/25 00:22:07;;;;;;;;;;;;;;;1.60;100.00;99957.85;1682388;84;20457;-62
2021/11/25 00:24:35;;;;;;;;;;;;;;;1.63;100.00;99960.63;1682889;84;20399;-62
2021/11/25 00:27:01;;;;;;;;;;;;;;;1.64;100.00;99962.25;1683109;84;20525;-63
2021/11/25 00:29:28;;;;;;;;;;;;;;;1.64;100.00;99962.25;1690599;84;20406;-62
2021/11/25 00:31:55;;;;;;;;;;;;;;;1.66;100.00;99964.22;1682899;84;21901;-62
2021/11/25 00:34:22;;;;;;;;;;;;;;;1.64;100.00;99958.28;1682630;84;20125;-62
2021/11/25 00:36:49;;;;;;;;;;;;;;;1.62;100.00;99957.17;1691195;84;20435;-63
2021/11/25 00:39:15;;;;;;;;;;;;;;;1.64;100.00;99949.88;1682862;84;20410;-62
2021/11/25 00:41:43;;;;;;;;;;;;;;;1.63;100.00;99951.37;1687548;84;20092;-64
2021/11/25 00:44:09;;;;;;;;;;;;;;;1.61;100.00;99950.73;1654753;85;21794;-62
2021/11/25 00:46:36;;;;;;;;;;;;;;;1.64;100.00;99955.16;1675871;85;20116;-65
2021/11/25 00:49:03;;;;;;;;;;;;;;;1.65;100.00;99953.33;1676018;85;20410;-64
2021/11/25 00:51:30;;;;;;;;;;;;;;;1.65;100.00;99953.33;1675998;85;20128;-63
2021/11/25 00:53:57;;;;;;;;;;;;;;;1.65;100.00;99957.30;1677006;85;20442;-64
2021/11/25 00:56:23;;;;;;;;;;;;;;;1.67;100.00;99947.36;1678095;85;21231;-64
2021/11/25 00:58:50;;;;;;;;;;;;;;;1.68;100.00;99949.80;1678081;85;20096;-63
2021/11/25 01:01:17;;;;;;;;;;;;;;;1.67;100.00;99945.52;1683606;84;20404;-64
2021/11/25 01:03:43;;;;;;;;;;;;;;;1.68;100.00;99942.36;1682162;85;20116;-64
2021/11/25 01:06:10;;;;;;;;;;;;;;;1.67;100.00;99944.20;1685730;85;20123;-62
2021/11/25 01:08:36;;;;;;;;;;;;;;;1.70;100.00;99943.00;1679375;85;21133;-65
2021/11/25 01:11:03;;;;;;;;;;;;;;;1.70;100.00;99945.14;1700838;82;20105;-64
2021/11/25 01:13:30;;;;;;;;;;;;;;;1.70;100.00;99941.17;1730715;81;20108;-65
2021/11/25 01:15:57;;;;;;;;;;;;;;;1.69;100.00;99938.70;1731612;83;20148;-64
2021/11/25 01:18:26;;;;;;;;;;;;;;;1.69;100.00;99940.02;1730929;83;20113;-64
2021/11/25 01:20:53;;;;;;;;;;;;;;;1.70;100.00;99936.39;1730440;83;21839;-64
2021/11/25 01:23:25;;;;;;;;;;;;;;;1.70;100.00;99932.42;1731764;83;20129;-64
2021/11/25 01:25:53;;;;;;;;;;;;;;;1.69;100.00;99936.90;1731906;83;20451;-65
2021/11/25 01:28:20;;;;;;;;;;;;;;;1.69;100.00;99933.41;1731704;83;20298;-62
2021/11/25 01:30:49;;;;;;;;;;;;;;;1.70;100.00;99922.64;1732027;83;20168;-62
2021/11/25 01:33:16;;;;;;;;;;;;;;;1.72;100.00;99926.44;1732026;83;21158;-64
2021/11/25 01:35:42;;;;;;;;;;;;;;;1.74;100.00;99919.62;1702827;84;20402;-63
2021/11/25 01:38:10;;;;;;;;;;;;;;;1.74;100.00;99921.78;1702729;84;20115;-63
2021/11/25 01:40:37;;;;;;;;;;;;;;;1.76;100.00;99923.72;1702573;84;20432;-63
2021/11/25 01:43:05;;;;;;;;;;;;;;;1.77;100.00;99924.56;1702909;84;20096;-63
2021/11/25 01:45:32;;;;;;;;;;;;;;;1.76;100.00;99921.07;1702909;84;21047;-62
2021/11/25 01:47:59;;;;;;;;;;;;;;;1.75;100.00;99919.44;1702549;84;20099;-63
2021/11/25 01:50:27;;;;;;;;;;;;;;;1.77;100.00;99920.08;1702864;84;20430;-62
2021/11/25 01:52:53;;;;;;;;;;;;;;;1.76;100.00;99919.75;1702823;84;20099;-63
2021/11/25 01:55:20;;;;;;;;;;;;;;;1.77;100.00;99924.56;1719568;83;20109;-62
2021/11/25 01:57:51;;;;;;;;;;;;;;;1.75;100.00;99926.06;1730536;83;21134;-62
2021/11/25 02:00:30;;;;;;;;;;;;;;;1.73;100.00;99924.61;1728682;83;20088;-62
2021/11/25 02:02:57;;;;;;;;;;;;;;;1.76;100.00;99925.04;1736687;81;20487;-62
2021/11/25 02:05:25;;;;;;;;;;;;;;;1.74;100.00;99921.78;1755651;81;20132;-62
2021/11/25 02:07:51;;;;;;;;;;;;;;;1.74;100.00;99919.14;1743661;81;20107;-61
2021/11/25 02:10:18;;;;;;;;;;;;;;;1.74;100.00;99920.46;1736852;81;21097;-62
2021/11/25 02:12:45;;;;;;;;;;;;;;;1.73;100.00;99914.84;1703263;83;20091;-62
2021/11/25 02:15:14;;;;;;;;;;;;;;;1.74;100.00;99920.46;1731520;83;20082;-64
2021/11/25 02:17:42;;;;;;;;;;;;;;;1.77;100.00;99917.95;1781299;80;20116;-63
2021/11/25 02:20:09;;;;;;;;;;;;;;;1.76;100.00;99914.45;1781172;80;20394;-64
2021/11/25 02:22:37;;;;;;;;;;;;;;;1.78;100.00;99915.59;1781578;80;21124;-63
2021/11/25 02:25:06;;;;;;;;;;;;;;;1.78;100.00;99912.44;1780941;80;20387;-64
2021/11/25 02:27:32;;;;;;;;;;;;;;;1.80;100.00;99913.08;1776450;80;20077;-63
2021/11/25 02:29:59;;;;;;;;;;;;;;;1.80;100.00;99913.08;1781191;80;20578;-63
2021/11/25 02:32:37;;;;;;;;;;;;;;;1.78;100.00;99911.13;1781253;80;20092;-64
2021/11/25 02:35:05;;;;;;;;;;;;;;;1.79;100.00;99913.26;1781828;80;21219;-64
2021/11/25 02:37:32;;;;;;;;;;;;;;;1.81;100.00;99913.89;1780488;80;20096;-64
2021/11/25 02:39:59;;;;;;;;;;;;;;;1.80;100.00;99909.11;1781194;80;20445;-63
2021/11/25 02:42:26;;;;;;;;;;;;;;;1.82;100.00;99905.78;1782278;80;20120;-63
2021/11/25 02:44:52;;;;;;;;;;;;;;;1.81;100.00;99906.77;1782174;80;20097;-63
2021/11/25 02:47:19;;;;;;;;;;;;;;;1.81;100.00;99910.73;1782195;80;21156;-64
2021/11/25 02:49:46;;;;;;;;;;;;;;;1.80;100.00;99897.20;1781925;80;20159;-62
2021/11/25 02:52:12;;;;;;;;;;;;;;;1.79;100.00;99901.34;1782097;80;20139;-63
2021/11/25 02:54:42;;;;;;;;;;;;;;;1.82;100.00;99905.78;1782328;80;20506;-64
2021/11/25 02:57:10;;;;;;;;;;;;;;;1.83;100.00;99906.59;1782127;80;20437;-64
2021/11/25 02:59:37;;;;;;;;;;;;;;;1.84;100.00;99898.47;1782268;80;21119;-63
2021/11/25 03:02:05;;;;;;;;;;;;;;;1.83;100.00;99892.84;1782242;80;20430;-63
2021/11/25 03:04:31;;;;;;;;;;;;;;;1.87;100.00;99903.38;1761231;80;20116;-63
2021/11/25 03:06:58;;;;;;;;;;;;;;;1.87;100.00;99896.77;1767846;80;20437;-63
2021/11/25 03:09:25;;;;;;;;;;;;;;;1.87;100.00;99892.80;1782370;80;20471;-62
2021/11/25 03:11:53;;;;;;;;;;;;;;;1.87;100.00;99886.17;1779130;79;21060;-63
2021/11/25 03:14:20;;;;;;;;;;;;;;;1.88;100.00;99887.80;1774211;81;20148;-62
2021/11/25 03:16:46;;;;;;;;;;;;;;;1.88;100.00;99888.31;1774049;81;20120;-63
2021/11/25 03:19:13;;;;;;;;;;;;;;;1.90;100.00;99898.22;1773950;81;20093;-62
2021/11/25 03:21:40;;;;;;;;;;;;;;;1.90;100.00;99887.63;1774041;81;20465;-63
2021/11/25 03:24:07;;;;;;;;;;;;;;;1.91;100.00;99887.45;1773888;81;21108;-62
2021/11/25 03:26:33;;;;;;;;;;;;;;;1.92;100.00;99889.58;1773857;81;20172;-62
2021/11/25 03:29:00;;;;;;;;;;;;;;;1.93;100.00;99883.27;1773980;81;20117;-62
2021/11/25 03:31:29;;;;;;;;;;;;;;;1.95;100.00;99885.73;1773919;81;20120;-62
2021/11/25 03:33:57;;;;;;;;;;;;;;;1.95;100.00;99885.23;1773858;80;20149;-62
2021/11/25 03:36:24;;;;;;;;;;;;;;;1.93;100.00;99877.47;1774046;81;21120;-62
2021/11/25 03:38:50;;;;;;;;;;;;;;;1.93;100.00;99884.08;1774085;81;20397;-63
2021/11/25 03:41:18;;;;;;;;;;;;;;;1.93;100.00;99881.44;1743400;82;20091;-63
2021/11/25 03:43:45;;;;;;;;;;;;;;;1.94;100.00;99878.30;1743817;81;20150;-64
2021/11/25 03:46:12;;;;;;;;;;;;;;;1.95;100.00;99881.26;1773623;81;20104;-64
2021/11/25 03:48:39;;;;;;;;;;;;;;;1.95;100.00;99886.55;1773933;81;21078;-64
2021/11/25 03:51:07;;;;;;;;;;;;;;;1.94;100.00;99883.60;1773686;81;20199;-63
2021/11/25 03:53:35;;;;;;;;;;;;;;;1.92;100.00;99874.52;1774281;81;20136;-64
2021/11/25 03:56:02;;;;;;;;;;;;;;;1.95;100.00;99881.77;1773545;81;20101;-64
2021/11/25 03:58:29;;;;;;;;;;;;;;;1.94;100.00;99878.30;1768466;81;20128;-64
2021/11/25 04:00:56;;;;;;;;;;;;;;;1.91;100.00;99875.53;1773866;80;22267;-64
2021/11/25 04:03:23;;;;;;;;;;;;;;;1.92;100.00;99887.75;1773640;81;20426;-64
2021/11/25 04:05:49;;;;;;;;;;;;;;;1.92;100.00;99885.61;1772450;80;20116;-63
2021/11/25 04:08:16;;;;;;;;;;;;;;;1.92;100.00;99876.34;1772805;81;20108;-63
2021/11/25 04:10:43;;;;;;;;;;;;;;;1.95;100.00;99882.58;1773908;81;20077;-63
2021/11/25 04:13:10;;;;;;;;;;;;;;;1.97;100.00;99874.46;1786960;79;21120;-64
2021/11/25 04:15:37;;;;;;;;;;;;;;;1.97;100.00;99879.24;1790247;80;20096;-64
2021/11/25 04:18:04;;;;;;;;;;;;;;;1.97;100.00;99873.14;1790186;80;20168;-64
2021/11/25 04:20:31;;;;;;;;;;;;;;;1.97;100.00;99870.48;1789749;80;20140;-64
2021/11/25 04:22:58;;;;;;;;;;;;;;;1.98;100.00;99862.34;1788964;80;20184;-64
2021/11/25 04:25:26;;;;;;;;;;;;;;;1.99;100.00;99870.61;1788623;80;21952;-64
2021/11/25 04:27:54;;;;;;;;;;;;;;;1.99;100.00;99869.29;1788694;80;20217;-64
2021/11/25 04:35:35;;;;;;;;;;;;;;;1.99;100.00;99867.16;1788752;80;20088;-63
2021/11/25 04:38:14;;;;;;;;;;;;;;;1.99;100.00;99863.18;1799737;79;21128;-63
2021/11/25 04:40:46;;;;;;;;;;;;;;;1.98;100.00;99865.50;1778765;78;20110;-64
2021/11/25 04:43:14;;;;;;;;;;;;;;;1.94;100.00;99854.48;1795368;78;20087;-65
2021/11/25 04:45:41;;;;;;;;;;;;;;;1.95;100.00;99852.64;1807731;78;20383;-63
2021/11/25 04:48:08;;;;;;;;;;;;;;;1.95;100.00;99856.62;1788418;78;20472;-64
2021/11/25 04:50:35;;;;;;;;;;;;;;;1.95;100.00;99853.46;1788539;80;21111;-64
2021/11/25 04:53:03;;;;;;;;;;;;;;;1.92;100.00;99844.07;1788799;80;20150;-63
2021/11/25 04:55:30;;;;;;;;;;;;;;;1.90;100.00;99847.41;1790317;80;20416;-64
2021/11/25 04:57:56;;;;;;;;;;;;;;;1.91;100.00;99846.90;1790100;80;20417;-63
2021/11/25 05:00:24;;;;;;;;;;;;;;;1.89;100.00;99840.48;1789814;80;20104;-62
2021/11/25 05:02:51;;;;;;;;;;;;;;;1.92;100.00;99836.64;1788669;80;21097;-62
2021/11/25 05:05:18;;;;;;;;;;;;;;;1.92;100.00;99840.61;1788284;80;20151;-63
2021/11/25 05:07:46;;;;;;;;;;;;;;;1.91;100.00;99839.80;1788521;80;20191;-65
2021/11/25 05:10:13;;;;;;;;;;;;;;;1.93;100.00;99832.97;1789690;80;20164;-66
2021/11/25 05:12:40;;;;;;;;;;;;;;;1.95;100.00;99836.77;1788624;79;20064;-65
2021/11/25 05:15:08;;;;;;;;;;;;;;;1.93;100.00;99834.30;1789725;80;20526;-65
2021/11/25 05:17:35;;;;;;;;;;;;;;;1.94;100.00;99841.25;1789553;80;20163;-64
2021/11/25 05:20:05;;;;;;;;;;;;;;;1.96;100.00;99838.39;1788460;79;20413;-63
2021/11/25 05:22:32;;;;;;;;;;;;;;;1.96;100.00;99834.41;1788783;80;20088;-64
2021/11/25 05:24:58;;;;;;;;;;;;;;;1.95;100.00;99834.11;1789465;80;20211;-63
2021/11/25 05:27:24;;;;;;;;;;;;;;;1.91;100.00;99830.53;1788872;80;21883;-64
2021/11/25 05:29:51;;;;;;;;;;;;;;;1.91;100.00;99829.69;1789682;80;20115;-65
2021/11/25 05:32:18;;;;;;;;;;;;;;;1.90;100.00;99827.55;1789538;80;20174;-63
2021/11/25 05:34:47;;;;;;;;;;;;;;;1.91;100.00;99833.18;1790080;80;20128;-63
2021/11/25 05:37:15;;;;;;;;;;;;;;;1.91;100.00;99832.34;1789880;80;20131;-65
2021/11/25 05:39:42;;;;;;;;;;;;;;;1.92;100.00;99827.38;1790356;80;21716;-63
2021/11/25 05:42:09;;;;;;;;;;;;;;;1.94;100.00;99830.66;1790189;80;20127;-63
2021/11/25 05:44:35;;;;;;;;;;;;;;;1.94;100.00;99835.95;1790127;80;20124;-64
2021/11/25 05:47:03;;;;;;;;;;;;;;;1.96;100.00;99831.77;1781276;80;20112;-65
2021/11/25 05:49:30;;;;;;;;;;;;;;;1.96;100.00;99833.09;1784076;80;20190;-64
2021/11/25 05:51:59;;;;;;;;;;;;;;;1.97;100.00;99832.10;1779053;80;21112;-65
2021/11/25 05:54:25;;;;;;;;;;;;;;;2.01;100.00;99834.66;1782554;80;20081;-64
2021/11/25 05:56:54;;;;;;;;;;;;;;;2.00;100.00;99834.36;1788047;80;20091;-65
2021/11/25 05:59:20;;;;;;;;;;;;;;;2.01;100.00;99836.83;1787304;80;20076;-65
2021/11/25 06:01:47;;;;;;;;;;;;;;;2.02;100.00;99833.67;1788917;80;20127;-63
2021/11/25 06:04:14;;;;;;;;;;;;;;;2.02;100.00;99834.48;1786202;80;21125;-64
2021/11/25 06:06:40;;;;;;;;;;;;;;;2.02;100.00;99840.28;1788490;80;20119;-63
2021/11/25 06:09:07;;;;;;;;;;;;;;;2.06;100.00;99841.05;1788484;80;20081;-64
2021/11/25 06:11:34;;;;;;;;;;;;;;;2.07;100.00;99839.20;1780116;80;20104;-64
2021/11/25 06:14:00;;;;;;;;;;;;;;;2.07;100.00;99837.38;1745368;79;20128;-63
2021/11/25 06:16:27;;;;;;;;;;;;;;;2.09;100.00;99841.16;1737105;80;21122;-66
2021/11/25 06:18:56;;;;;;;;;;;;;;;2.08;100.00;99835.05;1745134;80;20421;-66
2021/11/25 06:21:22;;;;;;;;;;;;;;;2.11;100.00;99846.58;1745277;82;20079;-64
2021/11/25 06:23:49;;;;;;;;;;;;;;;2.12;100.00;99846.07;1745731;82;20183;-64
2021/11/25 06:26:15;;;;;;;;;;;;;;;2.15;100.00;99849.65;1745536;82;20115;-64
2021/11/25 06:28:43;;;;;;;;;;;;;;;2.15;100.00;99849.14;1746227;82;20067;-65
2021/11/25 06:31:10;;;;;;;;;;;;;;;2.15;100.00;99847.00;1739420;81;20107;-66
2021/11/25 06:33:36;;;;;;;;;;;;;;;2.19;100.00;99850.10;1745150;81;20135;-66
2021/11/25 06:36:04;;;;;;;;;;;;;;;2.18;100.00;99843.99;1741165;82;20417;-66
2021/11/25 06:38:31;;;;;;;;;;;;;;;2.20;100.00;99849.89;1744514;82;20111;-67
2021/11/25 06:40:58;;;;;;;;;;;;;;;2.23;100.00;99850.86;1747252;81;21108;-66
2021/11/25 06:43:26;;;;;;;;;;;;;;;2.23;100.00;99850.02;1747181;81;20146;-62
2021/11/25 06:45:53;;;;;;;;;;;;;;;2.26;100.00;99849.14;1745939;82;20569;-62
2021/11/25 06:48:20;;;;;;;;;;;;;;;2.27;100.00;99845.98;1747034;82;20401;-65
2021/11/25 06:50:47;;;;;;;;;;;;;;;2.28;100.00;99839.66;1747247;82;20111;-65
2021/11/25 06:53:13;;;;;;;;;;;;;;;2.29;100.00;99845.28;1747175;82;21131;-65
2021/11/25 06:55:40;;;;;;;;;;;;;;;2.30;100.00;99840.29;1735589;82;20119;-64
2021/11/25 06:58:06;;;;;;;;;;;;;;;2.33;100.00;99839.92;1732341;82;20116;-65
2021/11/25 07:00:33;;;;;;;;;;;;;;;2.33;100.00;99847.36;1732972;82;20136;-65
2021/11/25 07:02:59;;;;;;;;;;;;;;;2.38;100.00;99844.14;1732011;83;20171;-65
2021/11/25 07:05:26;;;;;;;;;;;;;;;2.34;100.00;99841.04;1731476;81;21144;-64
2021/11/25 07:07:54;;;;;;;;;;;;;;;2.40;100.00;99848.74;1731769;81;20111;-64
2021/11/25 07:10:21;;;;;;;;;;;;;;;2.44;100.00;99847.33;1731806;83;20108;-63
2021/11/25 07:12:48;;;;;;;;;;;;;;;2.43;100.00;99843.56;1720935;82;20470;-65
2021/11/25 07:15:16;;;;;;;;;;;;;;;2.44;100.00;99845.19;1717751;83;20109;-65
2021/11/25 07:17:45;;;;;;;;;;;;;;;2.49;100.00;99853.38;1718830;83;20156;-65
2021/11/25 07:20:13;;;;;;;;;;;;;;;2.49;100.00;99840.13;1717389;83;20187;-65
2021/11/25 07:22:40;;;;;;;;;;;;;;;2.47;100.00;99849.58;1721022;82;20091;-64
2021/11/25 07:25:14;;;;;;;;;;;;;;;2.50;100.00;99848.37;1720670;82;20175;-64
2021/11/25 07:27:41;;;;;;;;;;;;;;;2.48;100.00;99843.28;1669419;85;20159;-65
2021/11/25 07:30:09;;;;;;;;;;;;;;;2.51;100.00;99842.89;1666751;84;21214;-65
2021/11/25 07:32:35;;;;;;;;;;;;;;;2.53;100.00;99834.25;1678565;83;20135;-65
2021/11/25 07:35:03;;;;;;;;;;;;;;;2.56;100.00;99843.64;1668726;86;20147;-65
2021/11/25 07:37:30;;;;;;;;;;;;;;;2.56;100.00;99837.02;1668571;85;20115;-63
2021/11/25 07:39:57;;;;;;;;;;;;;;;2.60;100.00;99842.25;1668690;86;20075;-64
2021/11/25 07:42:23;;;;;;;;;;;;;;;2.64;100.00;99825.44;1680356;85;21141;-63
2021/11/25 07:44:51;;;;;;;;;;;;;;;2.66;100.00;99836.15;1684040;85;20120;-64
2021/11/25 07:47:22;;;;;;;;;;;;;;;2.65;100.00;99838.50;1668651;86;20163;-63
2021/11/25 07:49:46;;;;;;;;;;;;;;;2.67;100.00;99832.50;1668519;83;20126;-64
2021/11/25 07:52:13;;;;;;;;;;;;;;;2.71;100.00;99834.24;1694464;83;20169;-63
2021/11/25 07:54:40;;;;;;;;;;;;;;;2.74;100.00;99832.03;1693149;83;21743;-62
2021/11/25 07:57:08;;;;;;;;;;;;;;;2.74;100.00;99828.55;1679245;84;20417;-63
2021/11/25 07:59:34;;;;;;;;;;;;;;;2.80;100.00;99837.05;1669515;85;20182;-63
2021/11/25 08:02:01;;;;;;;;;;;;;;;2.82;100.00;99831.05;1673193;85;20181;-63
2021/11/25 08:04:29;;;;;;;;;;;;;;;2.86;100.00;99837.58;1684496;83;20241;-63
2021/11/25 08:06:55;;;;;;;;;;;;;;;2.86;100.00;99836.25;1712862;83;21123;-63
2021/11/25 08:09:22;;;;;;;;;;;;;;;2.88;100.00;99838.20;1713337;83;20133;-62
2021/11/25 08:11:48;;;;;;;;;;;;;;;2.92;100.00;99831.50;1718306;81;20224;-62
2021/11/25 08:14:15;;;;;;;;;;;;;;;2.94;100.00;99839.24;1711617;82;20446;-65
2021/11/25 08:16:42;;;;;;;;;;;;;;;2.94;100.00;99841.41;1721874;83;20116;-62
2021/11/25 08:19:08;;;;;;;;;;;;;;;2.98;100.00;99831.22;1721250;82;21694;-62
2021/11/25 08:21:36;;;;;;;;;;;;;;;3.03;100.00;99836.74;1746164;82;20105;-63
2021/11/25 08:24:02;;;;;;;;;;;;;;;3.00;100.00;99831.84;1746598;82;20410;-64
2021/11/25 08:26:29;;;;;;;;;;;;;;;3.07;100.00;99826.06;1746433;82;20108;-63
2021/11/25 08:28:56;;;;;;;;;;;;;;;3.12;100.00;99824.14;1746567;82;20386;-63
2021/11/25 08:31:23;;;;;;;;;;;;;;;3.18;100.00;99832.62;1730223;81;21835;-64
2021/11/25 08:33:49;;;;;;;;;;;;;;;3.19;100.00;99824.98;1696394;84;20120;-63
2021/11/25 08:36:17;;;;;;;;;;;;;;;3.22;100.00;99825.39;1734232;82;20188;-63
2021/11/25 08:38:43;;;;;;;;;;;;;;;3.25;100.00;99824.69;1695435;84;20346;-64
2021/11/25 08:41:10;;;;;;;;;;;;;;;3.29;100.00;99821.44;1711635;82;21054;-64
2021/11/25 08:43:36;;;;;;;;;;;;;;;3.32;100.00;99819.70;1731715;82;21890;-63
2021/11/25 08:46:05;;;;;;;;;;;;;;;3.30;100.00;99815.63;1727200;80;20150;-64
2021/11/25 08:48:33;;;;;;;;;;;;;;;3.39;100.00;99819.22;1720689;83;20083;-64
2021/11/25 08:50:59;;;;;;;;;;;;;;;3.42;100.00;99818.81;1720825;83;20127;-65
2021/11/25 08:53:26;;;;;;;;;;;;;;;3.42;100.00;99821.47;1765918;81;20144;-63
2021/11/25 08:55:53;;;;;;;;;;;;;;;3.47;100.00;99812.91;1770412;81;21105;-63
2021/11/25 08:58:20;;;;;;;;;;;;;;;3.46;100.00;99803.84;1758936;81;20115;-65
2021/11/25 09:00:46;;;;;;;;;;;;;;;3.48;100.00;99796.47;1732506;82;20152;-64
2021/11/25 09:03:15;;;;;;;;;;;;;;;3.47;100.00;99796.98;1756084;80;20407;-65
2021/11/25 09:05:41;;;;;;;;;;;;;;;3.51;100.00;99806.70;1732006;81;20123;-63
2021/11/25 09:08:08;;;;;;;;;;;;;;;3.53;100.00;99806.81;1731873;83;21095;-63
2021/11/25 09:10:36;;;;;;;;;;;;;;;3.55;100.00;99791.99;1715613;82;20153;-63
2021/11/25 09:13:04;;;;;;;;;;;;;;;3.56;100.00;99787.81;1712211;82;20089;-63
2021/11/25 09:15:33;;;;;;;;;;;;;;;3.58;100.00;99792.42;1780414;80;20172;-65
2021/11/25 09:18:01;;;;;;;;;;;;;;;3.65;100.00;99796.42;1777065;79;20094;-63
2021/11/25 09:20:34;;;;;;;;;;;;;;;3.67;100.00;99785.06;1775499;81;21180;-64
2021/11/25 09:23:05;;;;;;;;;;;;;;;3.64;100.00;99786.80;1769861;79;20625;-63
2021/11/25 09:25:32;;;;;;;;;;;;;;;3.70;100.00;99787.34;1746122;81;20133;-62
2021/11/25 09:27:59;;;;;;;;;;;;;;;3.64;100.00;99776.19;1757861;81;20092;-62
2021/11/25 09:30:27;;;;;;;;;;;;;;;3.63;100.00;99774.05;1752583;81;20306;-66
2021/11/25 09:32:56;;;;;;;;;;;;;;;3.73;100.00;99776.30;1751558;80;20116;-64
2021/11/25 09:35:22;;;;;;;;;;;;;;;3.82;100.00;99766.28;1732077;81;20187;-63
2021/11/25 09:37:49;;;;;;;;;;;;;;;3.81;100.00;99768.12;1766202;81;20414;-65
2021/11/25 09:40:22;;;;;;;;;;;;;;;3.80;100.00;99774.47;1765502;81;20479;-65
2021/11/25 09:42:50;;;;;;;;;;;;;;;3.74;100.00;99766.49;1755091;81;20128;-62
2021/11/25 09:45:21;;;;;;;;;;;;;;;3.74;100.00;99773.94;1741835;81;21763;-65
2021/11/25 09:47:46;;;;;;;;;;;;;;;3.77;100.00;99771.39;1699276;83;20119;-64
2021/11/25 09:50:12;;;;;;;;;;;;;;;3.81;100.00;99766.80;1700142;84;20468;-68
2021/11/25 09:52:40;;;;;;;;;;;;;;;3.79;100.00;99760.87;1734443;80;20478;-67
2021/11/25 09:55:07;;;;;;;;;;;;;;;3.77;100.00;99760.28;1732121;83;20505;-66
2021/11/25 09:57:35;;;;;;;;;;;;;;;3.82;100.00;99743.71;1712266;83;21123;-66
2021/11/25 10:00:03;;;;;;;;;;;;;;;3.78;100.00;99746.49;1732998;83;20113;-66
2021/11/25 10:02:31;;;;;;;;;;;;;;;3.85;100.00;99731.38;1730093;82;20422;-64
2021/11/25 10:04:58;;;;;;;;;;;;;;;3.81;100.00;99733.61;1731226;83;20069;-64
2021/11/25 10:07:31;;;;;;;;;;;;;;;3.84;100.00;99732.38;1731218;83;20084;-64
2021/11/25 10:09:58;;;;;;;;;;;;;;;3.83;100.00;99726.78;1730600;82;21064;-64
2021/11/25 10:12:37;;;;;;;;;;;;;;;3.84;100.00;99722.56;1729902;81;20408;-63
2021/11/25 10:15:35;;;;;;;;;;;;;;;3.77;100.00;99732.89;1713804;81;20435;-65
2021/11/25 10:18:06;;;;;;;;;;;;;;;3.69;100.00;99725.95;1714353;83;20097;-65
2021/11/25 10:20:36;;;;;;;;;;;;;;;3.62;100.00;99715.33;1717172;82;20399;-64
2021/11/25 10:23:07;;;;;;;;;;;;;;;3.55;99.99;99694.63;1717123;82;21114;-64
2021/11/25 10:25:59;;;;;;;;;;;;;;;3.60;99.89;99729.83;1717335;82;20097;-64
2021/11/25 10:28:38;;;;;;;;;;;;;;;3.57;96.99;99696.55;1716953;83;20367;-65
2021/11/25 10:31:08;;;;;;;;;;;;;;;3.81;95.27;99709.71;1717293;82;20437;-64
2021/11/25 10:33:56;;;;;;;;;;;;;;;4.26;93.26;99716.50;1696917;82;20177;-64
2021/11/25 10:37:25;;;;;;;;;;;;;;;4.25;91.50;99706.06;1693652;84;21024;-62
2021/11/25 10:41:46;;;;;;;;;;;;;;;4.06;94.73;99698.44;1667310;83;20444;-63
2021/11/25 10:44:19;;;;;;;;;;;;;;;4.04;95.36;99696.50;1707706;84;20160;-64
2021/11/25 10:46:52;;;;;;;;;;;;;;;4.07;96.45;99686.81;1707767;84;20117;-65
2021/11/25 10:49:21;;;;;;;;;;;;;;;3.90;94.49;99671.82;1681329;84;21168;-64
2021/11/25 10:51:48;;;;;;;;;;;;;;;4.01;95.87;99677.81;1690641;83;20100;-65
2021/11/25 10:54:17;;;;;;;;;;;;;;;4.15;92.97;99671.16;1652151;86;20113;-65
2021/11/25 10:56:54;;;;;;;;;;;;;;;4.51;91.00;99659.98;1665942;84;20502;-66
2021/11/25 10:59:22;;;;;;;;;;;;;;;4.62;88.21;99665.95;1671145;85;20158;-65
2021/11/25 11:01:50;;;;;;;;;;;;;;;4.40;89.91;99660.11;1714385;83;21945;-65
2021/11/25 11:04:17;;;;;;;;;;;;;;;4.30;89.52;99639.82;1713159;83;20125;-64
2021/11/25 11:06:44;;;;;;;;;;;;;;;4.41;90.66;99656.94;1702079;84;20082;-67
2021/11/25 11:09:33;;;;;;;;;;;;;;;4.45;90.54;99658.97;1715205;83;20149;-67
2021/11/25 11:12:22;;;;;;;;;;;;;;;4.39;88.43;99649.20;1700692;82;20094;-68
2021/11/25 11:14:53;;;;;;;;;;;;;;;4.19;90.32;99637.81;1711653;82;21160;-68
2021/11/25 11:17:26;;;;;;;;;;;;;;;4.15;91.89;99631.30;1678933;83;20119;-69
2021/11/25 11:20:13;;;;;;;;;;;;;;;4.04;91.91;99634.08;1656983;85;20087;-68
2021/11/25 11:22:39;;;;;;;;;;;;;;;3.97;93.40;99618.67;1684636;84;20111;-66
2021/11/25 11:25:07;;;;;;;;;;;;;;;3.94;94.51;99629.20;1694002;83;20085;-66
2021/11/25 11:27:33;;;;;;;;;;;;;;;3.86;93.78;99612.17;1693241;85;21920;-65
2021/11/25 11:30:00;;;;;;;;;;;;;;;3.86;95.71;99609.52;1693135;85;20106;-65
2021/11/25 11:32:27;;;;;;;;;;;;;;;3.92;97.00;99602.06;1679441;85;20093;-65
2021/11/25 11:34:53;;;;;;;;;;;;;;;3.92;96.74;99580.81;1693426;85;20429;-63
2021/11/25 11:37:21;;;;;;;;;;;;;;;3.94;97.64;99585.90;1693215;85;20077;-65
2021/11/25 11:39:48;;;;;;;;;;;;;;;3.92;98.23;99587.45;1694833;84;21207;-65
2021/11/25 11:42:15;;;;;;;;;;;;;;;3.95;97.40;99575.59;1695224;83;20109;-65
2021/11/25 11:44:44;;;;;;;;;;;;;;;3.89;97.80;99591.03;1715593;83;20097;-64
2021/11/25 11:47:11;;;;;;;;;;;;;;;3.80;97.18;99574.52;1714127;83;20538;-65
2021/11/25 11:49:38;;;;;;;;;;;;;;;3.81;99.52;99586.77;1712538;84;20142;-66
2021/11/25 11:52:14;;;;;;;;;;;;;;;3.82;100.00;99576.43;1712689;83;21713;-66
2021/11/25 11:54:46;;;;;;;;;;;;;;;3.80;100.00;99565.23;1712146;81;20128;-66
2021/11/25 11:57:35;;;;;;;;;;;;;;;3.69;99.58;99574.64;1712185;84;20097;-66
2021/11/25 12:00:09;;;;;;;;;;;;;;;3.71;99.63;99577.91;1659580;84;20845;-66
2021/11/25 12:02:50;;;;;;;;;;;;;;;3.71;99.99;99568.61;1681481;85;20457;-65
2021/11/25 12:05:43;;;;;;;;;;;;;;;3.73;100.00;99557.80;1696548;84;21118;-65
2021/11/25 12:08:30;;;;;;;;;;;;;;;3.72;100.00;99546.86;1696126;84;20138;-65
2021/11/25 12:11:05;;;;;;;;;;;;;;;3.65;100.00;99553.53;1690518;84;20131;-65
2021/11/25 12:13:55;;;;;;;;;;;;;;;3.54;100.00;99548.34;1668123;84;20165;-65
2021/11/25 12:16:25;;;;;;;;;;;;;;;3.52;100.00;99557.53;1733545;83;20185;-65
2021/11/25 12:18:57;;;;;;;;;;;;;;;3.46;100.00;99533.16;1733323;83;21121;-65
2021/11/25 12:21:45;;;;;;;;;;;;;;;3.42;100.00;99536.20;1733305;83;20141;-67
2021/11/25 12:24:30;;;;;;;;;;;;;;;3.40;100.00;99544.88;1733350;83;20193;-66
2021/11/25 12:27:07;;;;;;;;;;;;;;;3.36;100.00;99541.03;1733521;83;20392;-64
2021/11/25 12:29:57;;;;;;;;;;;;;;;3.37;100.00;99540.52;1749059;80;20112;-67
2021/11/25 12:32:36;;;;;;;;;;;;;;;3.41;100.00;99537.25;1764051;80;20104;-65
2021/11/25 12:35:19;;;;;;;;;;;;;;;3.37;100.00;99521.95;1763266;81;20372;-66
2021/11/25 12:41:10;;;;;;;;;;;;;;;3.22;100.00;99515.03;1763218;80;20431;-66
2021/11/25 12:43:40;;;;;;;;;;;;;;;3.19;100.00;99535.86;1763335;81;20129;-65
2021/11/25 12:46:12;;;;;;;;;;;;;;;3.17;100.00;99529.94;1779377;80;21102;-66
2021/11/25 12:48:48;;;;;;;;;;;;;;;3.18;100.00;99527.06;1784068;80;20116;-66
2021/11/25 12:51:22;;;;;;;;;;;;;;;3.19;100.00;99517.30;1784029;80;20088;-66
2021/11/25 12:53:55;;;;;;;;;;;;;;;3.20;100.00;99529.00;1750314;82;20142;-67
2021/11/25 12:56:30;;;;;;;;;;;;;;;3.18;100.00;99521.75;1734845;80;20135;-67
2021/11/25 12:59:16;;;;;;;;;;;;;;;3.09;100.00;99518.23;1735196;82;21135;-66
2021/11/25 13:01:44;;;;;;;;;;;;;;;3.13;100.00;99524.73;1748394;82;20142;-67
2021/11/25 13:04:19;;;;;;;;;;;;;;;3.12;100.00;99517.81;1709581;84;20142;-66
2021/11/25 13:06:48;;;;;;;;;;;;;;;3.11;100.00;99509.05;1709480;84;20123;-66